Time;durP1;ratioP1;P1;durP2;ratioP2;P2;SDS_P1;SDS_P2;PMS_P1;PMS_P2;Temp;Humidity;BMP_temperature;BMP_pressure;BME280_temperature;BME280_humidity;BME280_pressure;Samples;Min_cycle;Max_cycle;Signal;HPM_P1;HPM_P2
2022/01/08 00:01:09;;;;;;;8.10;5.97;;;1.60;99.90;;;;;;5017078;28;20186;-92
2022/01/08 00:03:36;;;;;;;6.63;5.80;;;1.50;99.90;;;;;;5015568;28;20187;-93
2022/01/08 00:06:02;;;;;;;6.77;5.57;;;1.50;99.90;;;;;;5015705;28;20212;-91
2022/01/08 00:08:28;;;;;;;7.73;5.47;;;1.50;99.90;;;;;;5015691;28;20618;-91
2022/01/08 00:10:54;;;;;;;7.47;6.00;;;1.50;99.90;;;;;;5015165;28;20280;-92
2022/01/08 00:13:20;;;;;;;8.33;6.13;;;1.50;99.90;;;;;;5014551;28;20282;-92
2022/01/08 00:15:46;;;;;;;7.20;6.13;;;1.50;99.90;;;;;;5015471;28;20191;-91
2022/01/08 00:18:12;;;;;;;7.67;6.50;;;1.50;99.90;;;;;;5015283;28;20182;-91
2022/01/08 00:20:38;;;;;;;7.60;6.17;;;1.50;99.90;;;;;;5015371;28;20282;-92
2022/01/08 00:23:04;;;;;;;7.67;5.90;;;1.40;99.90;;;;;;5015270;28;20660;-92
2022/01/08 00:25:30;;;;;;;8.43;6.40;;;1.50;99.90;;;;;;5015324;28;20242;-91
2022/01/08 00:27:55;;;;;;;7.13;5.60;;;1.50;99.90;;;;;;5015446;28;20612;-92
2022/01/08 00:30:21;;;;;;;8.80;6.70;;;1.40;99.90;;;;;;5014799;28;20179;-91
2022/01/08 00:32:47;;;;;;;7.87;6.07;;;1.40;99.90;;;;;;5015037;28;20634;-92
2022/01/08 00:35:14;;;;;;;7.73;6.30;;;1.40;99.90;;;;;;5015089;28;20216;-92
2022/01/08 00:37:40;;;;;;;7.80;6.30;;;1.40;99.90;;;;;;5014930;28;20204;-91
2022/01/08 00:40:08;;;;;;;9.93;6.63;;;1.40;99.90;;;;;;5014753;28;20290;-92
2022/01/08 00:42:34;;;;;;;8.47;6.53;;;1.40;99.90;;;;;;5014914;28;20191;-91
2022/01/08 00:45:00;;;;;;;8.03;6.40;;;1.40;99.90;;;;;;5014662;28;20194;-91
2022/01/08 00:47:27;;;;;;;9.67;6.93;;;1.40;99.90;;;;;;5014755;28;20190;-91
2022/01/08 00:49:52;;;;;;;9.00;7.17;;;1.30;99.90;;;;;;5014945;28;20183;-92
2022/01/08 00:52:18;;;;;;;9.07;6.53;;;1.40;99.90;;;;;;5014751;28;20198;-91
2022/01/08 00:54:44;;;;;;;8.10;6.03;;;1.40;99.90;;;;;;5014835;28;20272;-92
2022/01/08 00:57:09;;;;;;;7.40;6.33;;;1.40;99.90;;;;;;5031174;28;20179;-92
2022/01/08 00:59:35;;;;;;;7.57;6.17;;;1.50;99.90;;;;;;5014473;28;20191;-92
2022/01/08 01:02:01;;;;;;;7.80;6.67;;;1.50;99.90;;;;;;5014491;28;20568;-91
2022/01/08 01:04:27;;;;;;;7.17;6.47;;;1.50;99.90;;;;;;5015748;28;20197;-91
2022/01/08 01:06:53;;;;;;;8.00;6.03;;;1.50;99.90;;;;;;5014458;28;20616;-91
2022/01/08 01:09:19;;;;;;;9.53;6.60;;;1.50;99.90;;;;;;5015531;28;20260;-92
2022/01/08 01:11:45;;;;;;;6.13;4.97;;;1.60;99.90;;;;;;5014398;28;20653;-91
2022/01/08 01:14:10;;;;;;;12.43;5.87;;;1.60;99.90;;;;;;5014000;28;20210;-91
2022/01/08 01:16:36;;;;;;;7.80;5.60;;;1.60;99.90;;;;;;5014135;28;20238;-92
2022/01/08 01:19:04;;;;;;;6.73;5.73;;;1.60;99.90;;;;;;5014209;28;20233;-92
2022/01/08 01:21:30;;;;;;;6.87;5.60;;;1.60;99.90;;;;;;5014288;28;20178;-91
2022/01/08 01:23:57;;;;;;;7.20;5.87;;;1.70;99.90;;;;;;5013656;28;20174;-92
2022/01/08 01:26:26;;;;;;;6.97;5.60;;;1.70;99.90;;;;;;5014061;28;20210;-92
2022/01/08 01:29:14;;;;;;;8.63;5.97;;;1.70;99.90;;;;;;5013962;28;20503;-92
2022/01/08 01:48:07;;;;;;;7.23;6.13;;;1.70;99.90;;;;;;5015496;28;20177;-92
2022/01/08 01:50:33;;;;;;;7.93;6.50;;;1.70;99.90;;;;;;5014303;28;20524;-91
2022/01/08 01:52:59;;;;;;;9.50;6.30;;;1.70;99.90;;;;;;5013991;28;20532;-93
2022/01/08 01:55:25;;;;;;;9.37;6.40;;;1.70;99.90;;;;;;5013979;28;20214;-92
2022/01/08 01:57:52;;;;;;;8.73;5.93;;;1.70;99.90;;;;;;5014053;28;20194;-92
2022/01/08 02:00:18;;;;;;;7.60;6.63;;;1.70;99.90;;;;;;5013765;28;20287;-92
2022/01/08 02:02:44;;;;;;;8.07;6.43;;;1.70;99.90;;;;;;5014225;28;20213;-92
2022/01/08 02:05:09;;;;;;;7.53;6.30;;;1.60;99.90;;;;;;5014112;28;20668;-92
2022/01/08 02:07:35;;;;;;;9.10;6.90;;;1.60;99.90;;;;;;5013860;28;20194;-92
2022/01/08 02:10:02;;;;;;;9.47;6.33;;;1.60;99.90;;;;;;5014128;28;20516;-92
2022/01/08 02:12:32;;;;;;;6.73;5.90;;;1.60;99.90;;;;;;5013311;28;20280;-91
2022/01/08 02:14:58;;;;;;;9.83;6.20;;;1.50;99.90;;;;;;4994009;28;20224;-91
2022/01/08 02:17:24;;;;;;;9.90;6.30;;;1.50;99.90;;;;;;4994210;28;20183;-91
2022/01/08 02:19:54;;;;;;;8.60;6.17;;;1.50;99.90;;;;;;4994731;28;20276;-93
2022/01/08 02:22:20;;;;;;;10.20;6.70;;;1.50;99.90;;;;;;4994235;28;20194;-92
2022/01/08 02:24:47;;;;;;;6.57;5.80;;;1.50;99.90;;;;;;4994248;28;20550;-92
2022/01/08 02:27:15;;;;;;;8.23;6.03;;;1.40;99.90;;;;;;4993917;28;20681;-92
2022/01/08 02:29:41;;;;;;;8.07;6.47;;;1.50;99.90;;;;;;4994097;28;20571;-92
2022/01/08 02:32:10;;;;;;;8.50;5.93;;;1.50;99.90;;;;;;4994233;28;20219;-92
2022/01/08 02:34:38;;;;;;;8.83;5.70;;;1.40;99.90;;;;;;4994099;28;20285;-92
2022/01/08 02:37:06;;;;;;;9.07;6.67;;;1.40;99.90;;;;;;4997105;28;20558;-92
2022/01/08 02:39:38;;;;;;;8.27;6.03;;;1.50;99.90;;;;;;4997526;28;20184;-93
2022/01/08 02:42:09;;;;;;;6.97;5.90;;;1.40;99.90;;;;;;4997474;28;20815;-92
2022/01/08 02:44:34;;;;;;;9.17;6.47;;;1.40;99.90;;;;;;5014248;28;20277;-92
2022/01/08 02:47:01;;;;;;;9.50;6.40;;;1.40;99.90;;;;;;5017026;28;20596;-92
2022/01/08 02:49:27;;;;;;;8.90;6.07;;;1.30;99.90;;;;;;5017044;28;20230;-92
2022/01/08 02:51:53;;;;;;;8.00;6.23;;;1.30;99.90;;;;;;5017289;28;20187;-92
2022/01/08 02:54:18;;;;;;;7.83;6.27;;;1.30;99.90;;;;;;5017071;28;20261;-92
2022/01/08 02:56:46;;;;;;;10.00;6.60;;;1.40;99.90;;;;;;5017924;28;20240;-92
2022/01/08 02:59:16;;;;;;;9.93;6.47;;;1.30;99.90;;;;;;5017142;28;20187;-92
2022/01/08 03:01:42;;;;;;;8.87;6.60;;;1.30;99.90;;;;;;5016830;28;20186;-92
2022/01/08 03:04:09;;;;;;;9.97;6.50;;;1.30;99.90;;;;;;5016689;28;20183;-92
2022/01/08 03:06:35;;;;;;;8.13;6.43;;;1.30;99.90;;;;;;5016621;28;20183;-92
2022/01/08 03:09:01;;;;;;;12.97;6.30;;;1.20;99.90;;;;;;5016647;28;20178;-92
2022/01/08 03:11:27;;;;;;;9.17;6.53;;;1.20;99.90;;;;;;5016556;28;20278;-93
2022/01/08 03:13:53;;;;;;;11.30;6.90;;;1.20;99.90;;;;;;5016279;28;20304;-92
2022/01/08 03:16:19;;;;;;;9.47;6.10;;;1.30;99.90;;;;;;5016483;28;20519;-92
2022/01/08 03:18:47;;;;;;;8.10;6.20;;;1.30;99.90;;;;;;5016665;28;20187;-92
2022/01/08 03:21:18;;;;;;;9.67;6.70;;;1.30;99.90;;;;;;5016375;28;20183;-92
2022/01/08 03:23:58;;;;;;;8.20;6.30;;;1.20;99.90;;;;;;5016678;28;20602;-92
2022/01/08 03:26:26;;;;;;;13.50;7.50;;;1.20;99.90;;;;;;5016498;28;20289;-92
2022/01/08 03:28:53;;;;;;;9.47;6.80;;;1.20;99.90;;;;;;5016303;28;20191;-92
2022/01/08 03:31:20;;;;;;;9.50;6.80;;;1.10;99.90;;;;;;5032908;28;20237;-92
2022/01/08 03:33:46;;;;;;;8.47;7.03;;;1.20;99.90;;;;;;5016145;28;20178;-91
2022/01/08 03:36:13;;;;;;;10.17;7.60;;;1.20;99.90;;;;;;5016225;28;20192;-93
2022/01/08 03:38:39;;;;;;;9.47;7.47;;;1.20;99.90;;;;;;5016181;28;20186;-92
2022/01/08 03:41:05;;;;;;;9.43;7.77;;;1.20;99.90;;;;;;5015993;28;20697;-92
2022/01/08 03:43:30;;;;;;;12.37;8.13;;;1.20;99.90;;;;;;5016073;28;20178;-91
2022/01/08 03:45:56;;;;;;;11.47;7.90;;;1.30;99.90;;;;;;5015911;28;20174;-92
2022/01/08 03:50:56;;;;;;;12.73;8.90;;;1.30;99.90;;;;;;5017159;28;20241;-91
2022/01/08 03:53:23;;;;;;;11.27;8.57;;;1.40;99.90;;;;;;5015905;28;20175;-92
2022/01/08 03:55:50;;;;;;;10.83;8.00;;;1.40;99.90;;;;;;5015951;28;20203;-91
2022/01/08 03:58:16;;;;;;;12.07;8.50;;;1.40;99.90;;;;;;5015690;28;20273;-92
2022/01/08 04:00:42;;;;;;;12.53;8.70;;;1.40;99.90;;;;;;5015433;28;20295;-92
2022/01/08 04:03:08;;;;;;;12.20;7.97;;;1.40;99.90;;;;;;5015510;28;20628;-92
2022/01/08 04:05:34;;;;;;;11.70;9.27;;;1.50;99.90;;;;;;5015773;28;20290;-93
2022/01/08 04:08:00;;;;;;;13.33;9.60;;;1.40;99.90;;;;;;5015760;28;20616;-92
2022/01/08 04:10:25;;;;;;;11.23;8.83;;;1.50;99.90;;;;;;5015503;28;20630;-91
2022/01/08 04:12:56;;;;;;;13.47;9.50;;;1.50;99.90;;;;;;5015656;28;20215;-91
2022/01/08 04:17:48;;;;;;;12.10;9.27;;;1.50;99.90;;;;;;5016649;28;20179;-92
2022/01/08 04:20:14;;;;;;;14.27;9.30;;;1.60;99.90;;;;;;5015311;28;20201;-91
2022/01/08 04:22:40;;;;;;;12.03;8.87;;;1.60;99.90;;;;;;5015596;28;20465;-91
2022/01/08 04:25:06;;;;;;;13.77;9.40;;;1.60;99.90;;;;;;5015507;28;20632;-91
2022/01/08 04:27:32;;;;;;;13.73;9.10;;;1.60;99.90;;;;;;5015397;28;20237;-91
2022/01/08 04:29:58;;;;;;;10.87;8.57;;;1.60;99.90;;;;;;5015079;28;20191;-92
2022/01/08 04:32:24;;;;;;;14.37;8.77;;;1.60;99.90;;;;;;5015092;28;20183;-90
2022/01/08 04:34:50;;;;;;;13.77;8.87;;;1.60;99.90;;;;;;5014945;28;20600;-91
2022/01/08 04:37:16;;;;;;;13.50;9.00;;;1.70;99.90;;;;;;5014941;28;20187;-91
2022/01/08 04:39:42;;;;;;;16.30;10.07;;;1.70;99.90;;;;;;5014981;28;20183;-92
2022/01/08 04:42:07;;;;;;;12.73;8.87;;;1.70;99.90;;;;;;5014914;28;20289;-92
2022/01/08 04:44:33;;;;;;;14.73;8.90;;;1.70;99.90;;;;;;5014625;28;20182;-92
2022/01/08 04:46:59;;;;;;;12.50;8.97;;;1.60;99.90;;;;;;5014770;28;20506;-91
2022/01/08 04:49:25;;;;;;;13.40;9.20;;;1.70;99.90;;;;;;5014856;28;20229;-91
2022/01/08 04:51:53;;;;;;;12.00;8.30;;;1.70;99.90;;;;;;5014880;28;20237;-92
2022/01/08 04:54:21;;;;;;;13.03;10.17;;;1.70;99.90;;;;;;5014597;28;20234;-91
2022/01/08 04:56:47;;;;;;;12.27;8.87;;;1.70;99.90;;;;;;5014810;28;20708;-91
2022/01/08 04:59:13;;;;;;;16.23;9.23;;;1.60;99.90;;;;;;5014063;28;20183;-91
2022/01/08 05:01:38;;;;;;;11.10;8.83;;;1.70;99.90;;;;;;5015633;28;20186;-92
2022/01/08 05:04:04;;;;;;;12.63;9.20;;;1.70;99.90;;;;;;5014717;28;20579;-92
2022/01/08 05:06:31;;;;;;;10.93;8.17;;;1.70;99.90;;;;;;5014497;28;20221;-92
2022/01/08 05:08:56;;;;;;;11.97;9.30;;;1.70;99.90;;;;;;5014960;28;20183;-92
2022/01/08 05:11:22;;;;;;;11.73;8.70;;;1.70;99.90;;;;;;5014664;28;20643;-92
2022/01/08 05:13:50;;;;;;;11.10;8.23;;;1.80;99.90;;;;;;5014250;28;20186;-92
2022/01/08 05:16:15;;;;;;;14.47;9.10;;;1.80;99.90;;;;;;5014236;28;20198;-92
2022/01/08 05:18:42;;;;;;;11.00;8.07;;;1.70;99.90;;;;;;5014351;28;20183;-93
2022/01/08 05:21:16;;;;;;;12.17;8.63;;;1.80;99.90;;;;;;5014495;28;20183;-92
2022/01/08 05:23:42;;;;;;;11.20;8.17;;;1.80;99.90;;;;;;5014451;28;20183;-92
2022/01/08 05:26:07;;;;;;;11.93;7.63;;;1.80;99.90;;;;;;5014283;28;20191;-93
2022/01/08 05:28:33;;;;;;;11.23;8.80;;;1.80;99.90;;;;;;5014091;28;20184;-92
2022/01/08 05:30:59;;;;;;;11.17;7.80;;;1.80;99.90;;;;;;5014482;28;20206;-92
2022/01/08 05:33:25;;;;;;;8.90;7.50;;;1.80;99.90;;;;;;5014256;28;20232;-92
2022/01/08 05:35:50;;;;;;;12.60;8.07;;;1.80;99.90;;;;;;5014126;28;20310;-92
2022/01/08 05:38:16;;;;;;;13.17;8.70;;;1.90;99.90;;;;;;5014155;28;20186;-92
2022/01/08 05:40:42;;;;;;;13.43;9.63;;;1.80;99.90;;;;;;5013926;28;20231;-92
2022/01/08 05:43:08;;;;;;;14.83;10.33;;;1.80;99.90;;;;;;5013990;28;20631;-91
2022/01/08 05:45:34;;;;;;;15.47;11.23;;;1.80;99.90;;;;;;5013958;28;20215;-91
2022/01/08 05:48:00;;;;;;;15.90;11.03;;;1.80;99.90;;;;;;5013911;28;20258;-92
2022/01/08 05:50:25;;;;;;;19.53;12.87;;;1.80;99.90;;;;;;5014224;28;20271;-93
2022/01/08 05:52:51;;;;;;;17.60;12.90;;;1.70;99.90;;;;;;5014044;28;20569;-93
2022/01/08 05:55:17;;;;;;;17.50;13.13;;;1.70;99.90;;;;;;5014005;28;20215;-93
2022/01/08 05:57:43;;;;;;;23.57;13.17;;;1.80;99.90;;;;;;5014324;28;20187;-93
2022/01/08 06:00:10;;;;;;;17.40;11.50;;;1.80;99.90;;;;;;5014031;28;20662;-93
2022/01/08 06:02:37;;;;;;;18.67;11.70;;;1.80;99.90;;;;;;5014327;28;20186;-92
2022/01/08 06:05:06;;;;;;;16.83;11.53;;;1.80;99.90;;;;;;5014228;28;20199;-93
2022/01/08 06:07:33;;;;;;;18.40;11.23;;;1.80;99.90;;;;;;5014137;28;20596;-93
2022/01/08 06:09:59;;;;;;;13.77;10.50;;;1.90;99.90;;;;;;5013994;28;20187;-93
2022/01/08 06:12:25;;;;;;;15.80;11.87;;;1.90;99.90;;;;;;5017535;28;20186;-94
2022/01/08 06:14:50;;;;;;;16.50;11.27;;;1.90;99.90;;;;;;5017378;28;20222;-93
2022/01/08 06:17:16;;;;;;;16.97;11.40;;;1.90;99.90;;;;;;5017889;28;20517;-93
2022/01/08 06:19:42;;;;;;;17.23;11.23;;;1.80;99.90;;;;;;5017586;28;20191;-93
2022/01/08 06:22:08;;;;;;;15.67;11.27;;;1.80;99.90;;;;;;5017664;28;20186;-93
2022/01/08 06:24:33;;;;;;;16.13;11.57;;;1.80;99.90;;;;;;5017414;28;20190;-93
2022/01/08 06:26:59;;;;;;;19.40;12.67;;;1.80;99.90;;;;;;5017255;28;20491;-93
2022/01/08 06:29:26;;;;;;;21.83;13.43;;;1.80;99.90;;;;;;5017361;28;20179;-92
2022/01/08 06:31:53;;;;;;;22.67;13.07;;;1.80;99.90;;;;;;5034079;28;20245;-92
2022/01/08 06:34:19;;;;;;;22.90;14.07;;;1.70;99.90;;;;;;5017218;28;20294;-92
2022/01/08 06:36:47;;;;;;;21.43;13.00;;;1.70;99.90;;;;;;5017257;28;20179;-92
2022/01/08 06:39:14;;;;;;;21.07;14.00;;;1.80;99.90;;;;;;5017316;28;20175;-92
2022/01/08 06:41:40;;;;;;;24.73;14.60;;;1.70;99.90;;;;;;5016983;28;20242;-92
2022/01/08 06:44:08;;;;;;;17.97;12.87;;;1.80;99.90;;;;;;5014167;28;20500;-92
2022/01/08 06:46:34;;;;;;;23.60;13.97;;;1.70;99.90;;;;;;5017791;28;20167;-93
2022/01/08 06:49:00;;;;;;;21.10;14.53;;;1.70;99.90;;;;;;5033724;28;20515;-94
2022/01/08 06:51:26;;;;;;;22.03;14.70;;;1.70;99.90;;;;;;5023183;28;20190;-92
2022/01/08 06:53:52;;;;;;;22.90;14.20;;;1.80;99.90;;;;;;5016026;28;20183;-94
2022/01/08 06:56:18;;;;;;;22.17;14.43;;;1.70;99.90;;;;;;5016711;28;20179;-93
2022/01/08 06:58:45;;;;;;;21.07;14.13;;;1.80;99.90;;;;;;5016825;28;20641;-93
2022/01/08 07:01:11;;;;;;;23.03;14.93;;;1.80;99.90;;;;;;5016495;28;20223;-93
2022/01/08 07:03:37;;;;;;;22.40;15.70;;;1.70;99.90;;;;;;5017007;28;20194;-92
2022/01/08 07:06:03;;;;;;;19.93;14.13;;;1.80;99.90;;;;;;5002699;28;20246;-93
2022/01/08 07:08:29;;;;;;;19.17;14.63;;;1.80;99.90;;;;;;5014020;28;20175;-93
2022/01/08 07:10:55;;;;;;;19.97;13.43;;;1.80;99.90;;;;;;5014965;28;20629;-93
2022/01/08 07:13:20;;;;;;;21.40;14.03;;;1.80;99.90;;;;;;5003801;28;20179;-93
2022/01/08 07:15:46;;;;;;;20.23;13.67;;;1.80;99.90;;;;;;5007284;28;20207;-92
2022/01/08 07:18:12;;;;;;;18.27;13.77;;;1.80;99.90;;;;;;5004103;28;20199;-93
2022/01/08 07:20:38;;;;;;;22.80;14.17;;;1.80;99.90;;;;;;4996928;28;20514;-92
2022/01/08 07:23:04;;;;;;;20.40;12.77;;;1.80;99.90;;;;;;4996525;28;20182;-93
2022/01/08 07:25:30;;;;;;;23.27;13.73;;;1.80;99.90;;;;;;4996340;28;20606;-95
2022/01/08 07:27:56;;;;;;;22.43;13.50;;;1.80;99.90;;;;;;4996989;28;20176;-92
2022/01/08 07:30:22;;;;;;;19.70;13.13;;;1.80;99.90;;;;;;5000390;28;20641;-92
2022/01/08 07:32:50;;;;;;;18.57;12.50;;;1.80;99.90;;;;;;4996622;28;20207;-93
2022/01/08 07:35:19;;;;;;;23.63;12.93;;;1.80;99.90;;;;;;5027987;28;20271;-92
2022/01/08 07:37:45;;;;;;;19.03;12.53;;;1.80;99.90;;;;;;5013646;28;20561;-92
2022/01/08 07:40:13;;;;;;;18.37;13.70;;;1.80;99.90;;;;;;5006645;28;20642;-91
2022/01/08 07:42:39;;;;;;;21.60;12.93;;;1.80;99.90;;;;;;5009629;28;20187;-92
2022/01/08 07:45:06;;;;;;;19.67;13.33;;;1.80;99.90;;;;;;5014763;28;20576;-92
2022/01/08 07:47:32;;;;;;;23.67;13.30;;;1.80;99.90;;;;;;5016048;28;20254;-92
2022/01/08 07:49:58;;;;;;;18.67;13.23;;;1.80;99.90;;;;;;5015734;28;20265;-92
2022/01/08 07:52:24;;;;;;;23.83;14.97;;;1.80;99.90;;;;;;5012862;28;20267;-93
2022/01/08 07:54:50;;;;;;;22.83;14.10;;;1.80;99.90;;;;;;5015415;28;20214;-92
2022/01/08 07:57:16;;;;;;;22.37;14.43;;;1.80;99.90;;;;;;5015661;28;20195;-92
2022/01/08 07:59:42;;;;;;;24.97;16.40;;;1.80;99.90;;;;;;5014361;28;20183;-91
2022/01/08 08:02:11;;;;;;;27.20;16.80;;;1.80;99.90;;;;;;5015327;28;20179;-92
2022/01/08 08:04:37;;;;;;;25.67;17.07;;;1.80;99.90;;;;;;5014882;28;20175;-92
2022/01/08 08:07:03;;;;;;;25.33;16.60;;;1.80;99.90;;;;;;5014160;28;20234;-92
2022/01/08 08:09:29;;;;;;;25.37;17.93;;;1.80;99.90;;;;;;5015185;28;20186;-92
2022/01/08 08:11:55;;;;;;;26.97;18.07;;;1.80;99.90;;;;;;5014992;28;20179;-93
2022/01/08 08:14:20;;;;;;;26.47;17.33;;;1.80;99.90;;;;;;5014458;28;20684;-92
2022/01/08 08:16:46;;;;;;;28.47;17.27;;;1.80;99.90;;;;;;5014772;28;20183;-92
2022/01/08 08:19:12;;;;;;;26.20;17.07;;;1.90;99.90;;;;;;5014688;28;20186;-92
2022/01/08 08:21:37;;;;;;;27.90;16.97;;;1.90;99.90;;;;;;5014473;28;20569;-92
2022/01/08 08:24:06;;;;;;;27.13;16.87;;;1.90;99.90;;;;;;5014212;28;20233;-92
2022/01/08 08:26:32;;;;;;;23.67;16.00;;;1.90;99.90;;;;;;5014701;28;20179;-92
2022/01/08 08:28:58;;;;;;;29.07;17.67;;;2.00;99.90;;;;;;5014402;28;20624;-93
2022/01/08 08:31:24;;;;;;;25.23;17.17;;;2.00;99.90;;;;;;5014368;28;20190;-93
2022/01/08 08:33:50;;;;;;;27.67;17.20;;;2.00;99.90;;;;;;5014177;28;20178;-92
2022/01/08 08:36:16;;;;;;;27.10;16.87;;;2.00;99.90;;;;;;5014414;28;20187;-92
2022/01/08 08:38:42;;;;;;;28.00;17.50;;;2.00;99.90;;;;;;5014370;28;20181;-92
2022/01/08 08:41:10;;;;;;;23.77;16.63;;;2.00;99.90;;;;;;5013437;28;20321;-92
2022/01/08 08:43:36;;;;;;;26.83;16.93;;;2.00;99.90;;;;;;5014575;28;20250;-93
2022/01/08 08:46:02;;;;;;;26.47;15.70;;;2.10;99.90;;;;;;5014696;28;20183;-92
2022/01/08 08:48:27;;;;;;;29.63;17.17;;;2.00;99.90;;;;;;5014879;28;20578;-92
2022/01/08 08:50:53;;;;;;;24.00;15.90;;;2.00;99.90;;;;;;5014983;28;20211;-93
2022/01/08 08:53:19;;;;;;;26.03;16.87;;;2.10;99.90;;;;;;5014844;28;20191;-92
2022/01/08 08:55:46;;;;;;;28.53;16.77;;;2.10;99.90;;;;;;5014691;28;20222;-91
2022/01/08 08:58:12;;;;;;;31.10;16.77;;;2.10;99.90;;;;;;5014600;28;20171;-92
2022/01/08 09:00:37;;;;;;;25.30;15.90;;;2.20;99.90;;;;;;5013684;28;20644;-92
2022/01/08 09:03:03;;;;;;;28.20;16.17;;;2.20;99.90;;;;;;5009123;28;20195;-92
2022/01/08 09:05:29;;;;;;;26.33;16.20;;;2.20;99.90;;;;;;4998445;28;20194;-92
2022/01/08 09:07:55;;;;;;;20.83;14.80;;;2.20;99.90;;;;;;5014163;28;20565;-93
2022/01/08 09:10:25;;;;;;;23.87;15.63;;;2.20;99.90;;;;;;5014451;28;20190;-93
2022/01/08 09:12:52;;;;;;;24.50;14.87;;;2.20;99.90;;;;;;5013531;28;20266;-92
2022/01/08 09:15:22;;;;;;;26.77;15.97;;;2.20;99.90;;;;;;5014244;28;20281;-92
2022/01/08 09:17:49;;;;;;;26.07;15.30;;;2.20;99.90;;;;;;5014254;28;20195;-92
2022/01/08 09:20:15;;;;;;;24.23;16.13;;;2.30;99.90;;;;;;5014534;28;20190;-92
2022/01/08 09:22:41;;;;;;;21.97;14.70;;;2.30;99.90;;;;;;5013889;28;20187;-92
2022/01/08 09:25:08;;;;;;;23.87;15.10;;;2.30;99.90;;;;;;5014265;28;20186;-92
2022/01/08 09:27:34;;;;;;;25.10;14.53;;;2.30;99.90;;;;;;5013442;28;20264;-93
2022/01/08 09:30:00;;;;;;;25.27;15.37;;;2.30;99.90;;;;;;5014190;28;20206;-92
2022/01/08 09:32:26;;;;;;;22.97;15.00;;;2.30;99.90;;;;;;5014006;28;20179;-92
2022/01/08 09:34:52;;;;;;;24.50;15.67;;;2.40;99.90;;;;;;5014119;28;20222;-92
2022/01/08 09:37:18;;;;;;;26.90;14.90;;;2.50;99.90;;;;;;5013671;28;20203;-93
2022/01/08 09:39:44;;;;;;;26.17;15.30;;;2.60;99.90;;;;;;5014309;28;20183;-94
2022/01/08 09:42:10;;;;;;;22.03;14.47;;;2.70;99.90;;;;;;5014365;28;20253;-93
2022/01/08 09:44:44;;;;;;;22.70;15.00;;;2.70;99.90;;;;;;5014014;28;20211;-93
2022/01/08 09:47:12;;;;;;;26.57;14.73;;;2.70;99.90;;;;;;5017201;28;20218;-94
2022/01/08 09:49:39;;;;;;;27.87;15.20;;;2.70;99.90;;;;;;5018904;28;20510;-93
2022/01/08 09:52:07;;;;;;;23.90;13.83;;;2.70;99.90;;;;;;5018047;28;20211;-93
2022/01/08 09:54:35;;;;;;;23.10;13.57;;;2.70;99.90;;;;;;5017663;28;20210;-94
2022/01/08 09:57:01;;;;;;;21.80;13.50;;;2.70;99.90;;;;;;5018234;28;20516;-92
2022/01/08 09:59:28;;;;;;;22.60;13.57;;;2.70;99.90;;;;;;5018024;28;20183;-93
2022/01/08 10:02:01;;;;;;;26.07;14.30;;;2.70;99.90;;;;;;5011444;28;20175;-93
2022/01/08 10:04:30;;;;;;;27.00;14.67;;;2.80;99.90;;;;;;5023314;28;20194;-93
2022/01/08 10:07:19;;;;;;;26.13;14.60;;;2.80;99.90;;;;;;5003020;28;20186;-93
2022/01/08 10:10:04;;;;;;;23.73;13.37;;;2.90;99.90;;;;;;4998292;28;20187;-92
2022/01/08 10:12:51;;;;;;;22.53;13.43;;;3.00;99.90;;;;;;4998157;28;20222;-94
2022/01/08 10:18:30;;;;;;;27.60;14.60;;;3.00;99.90;;;;;;5018032;28;20182;-93
2022/01/08 10:20:57;;;;;;;22.60;13.73;;;3.00;99.90;;;;;;5017496;28;20622;-93
2022/01/08 10:23:28;;;;;;;20.20;12.70;;;3.10;99.90;;;;;;5017397;28;20183;-93
2022/01/08 10:26:04;;;;;;;24.70;13.60;;;3.10;99.90;;;;;;5017657;28;20176;-94
2022/01/08 10:28:51;;;;;;;22.77;12.73;;;3.20;99.90;;;;;;5016012;28;20183;-92
2022/01/08 10:31:24;;;;;;;22.77;13.27;;;3.20;99.90;;;;;;5008667;28;20223;-93
2022/01/08 10:33:53;;;;;;;23.03;13.33;;;3.30;99.90;;;;;;5010045;28;20529;-93
2022/01/08 10:36:43;;;;;;;28.50;12.53;;;3.30;99.90;;;;;;5016960;28;20190;-93
2022/01/08 10:39:12;;;;;;;27.40;13.37;;;3.20;99.90;;;;;;5016780;28;20253;-93
2022/01/08 10:41:41;;;;;;;21.90;13.20;;;3.30;99.90;;;;;;5017188;28;20234;-93
2022/01/08 10:44:19;;;;;;;27.03;13.67;;;3.20;99.90;;;;;;5016908;28;20221;-94
2022/01/08 10:47:04;;;;;;;27.17;14.13;;;3.30;99.90;;;;;;4999805;28;20168;-93
2022/01/08 10:49:35;;;;;;;24.97;13.63;;;3.20;99.90;;;;;;5016263;28;20205;-93
2022/01/08 10:52:08;;;;;;;23.20;13.57;;;3.20;99.90;;;;;;5017059;28;20601;-93
2022/01/08 10:54:39;;;;;;;24.03;12.90;;;3.20;99.90;;;;;;5016073;28;20215;-93
2022/01/08 10:57:08;;;;;;;24.27;13.90;;;3.20;99.90;;;;;;5016605;28;20179;-94
2022/01/08 10:59:36;;;;;;;23.50;13.93;;;3.30;99.90;;;;;;5016699;28;20187;-93
2022/01/08 11:02:07;;;;;;;24.53;13.50;;;3.30;99.90;;;;;;4996938;28;20607;-92
2022/01/08 11:04:41;;;;;;;24.83;13.23;;;3.40;99.90;;;;;;4997396;28;20172;-93
2022/01/08 11:07:27;;;;;;;25.20;13.13;;;3.40;99.90;;;;;;4997230;28;20176;-92
2022/01/08 11:10:04;;;;;;;27.47;13.30;;;3.40;99.90;;;;;;4998031;28;20172;-90
2022/01/08 11:12:39;;;;;;;24.70;13.17;;;3.50;99.90;;;;;;5003158;28;20185;-93
2022/01/08 11:17:47;;;;;;;26.57;13.10;;;3.60;99.90;;;;;;5017068;28;20175;-92
2022/01/08 11:20:20;;;;;;;20.80;12.00;;;3.60;99.90;;;;;;5016411;28;20674;-91
2022/01/08 11:22:49;;;;;;;21.40;12.20;;;3.60;99.90;;;;;;5016333;28;20171;-91
2022/01/08 11:25:32;;;;;;;22.97;12.60;;;3.60;99.90;;;;;;5015892;28;20205;-92
2022/01/08 11:28:11;;;;;;;26.03;12.83;;;3.50;99.90;;;;;;5016224;28;20234;-92
2022/01/08 11:30:50;;;;;;;20.63;12.70;;;3.60;99.90;;;;;;5012795;28;20648;-92
2022/01/08 11:33:25;;;;;;;20.67;11.57;;;3.80;99.90;;;;;;4996383;28;20180;-92
2022/01/08 11:35:52;;;;;;;20.17;12.43;;;3.80;99.90;;;;;;4996770;28;20215;-92
2022/01/08 11:38:20;;;;;;;22.30;12.13;;;3.80;99.90;;;;;;4996782;28;20176;-92
2022/01/08 11:40:48;;;;;;;24.73;12.43;;;3.90;99.90;;;;;;4996477;28;20664;-92
2022/01/08 11:43:16;;;;;;;22.33;12.70;;;3.90;99.90;;;;;;5006115;28;20181;-91
2022/01/08 11:45:48;;;;;;;22.83;12.17;;;4.00;99.90;;;;;;5014968;28;20183;-92
2022/01/08 11:48:16;;;;;;;21.87;11.90;;;4.10;99.90;;;;;;5015800;28;20221;-92
2022/01/08 11:50:54;;;;;;;21.57;12.27;;;4.20;99.90;;;;;;5015631;28;20194;-92
2022/01/08 11:53:47;;;;;;;27.97;12.20;;;4.20;99.90;;;;;;5015722;28;20270;-92
2022/01/08 11:56:26;;;;;;;24.17;12.03;;;4.20;99.90;;;;;;5015988;28;20249;-92
2022/01/08 11:59:12;;;;;;;20.27;11.07;;;4.30;99.90;;;;;;5015853;28;20611;-92
2022/01/08 12:01:41;;;;;;;24.17;11.63;;;4.40;99.90;;;;;;5015875;28;20179;-92
2022/01/08 12:04:23;;;;;;;27.07;11.00;;;4.50;99.90;;;;;;5012757;28;20182;-91
2022/01/08 12:06:49;;;;;;;23.67;11.43;;;4.40;99.90;;;;;;5014737;28;20182;-90
2022/01/08 12:09:25;;;;;;;20.47;10.80;;;4.40;99.90;;;;;;5014035;28;20179;-90
2022/01/08 12:11:53;;;;;;;21.27;10.90;;;4.40;99.90;;;;;;5013479;28;20238;-91
2022/01/08 12:14:26;;;;;;;20.37;10.70;;;4.40;99.90;;;;;;5014900;28;20211;-91
2022/01/08 12:16:57;;;;;;;18.30;10.10;;;4.40;99.90;;;;;;5014897;28;20511;-94
2022/01/08 12:19:43;;;;;;;22.00;10.30;;;4.40;99.90;;;;;;5003203;28;20186;-93
2022/01/08 12:22:21;;;;;;;22.30;10.00;;;4.20;99.90;;;;;;4995484;28;20176;-92
2022/01/08 12:24:53;;;;;;;19.23;9.60;;;4.10;99.90;;;;;;4995526;28;20194;-92
2022/01/08 12:27:34;;;;;;;24.20;10.87;;;4.00;99.90;;;;;;4994870;28;20187;-92
2022/01/08 12:30:04;;;;;;;22.13;12.23;;;4.00;99.90;;;;;;5015168;28;20187;-92
2022/01/08 12:32:39;;;;;;;23.73;11.07;;;4.00;99.90;;;;;;5014960;28;20185;-93
2022/01/08 12:35:38;;;;;;;18.63;10.33;;;4.00;99.90;;;;;;5014013;28;20214;-92
2022/01/08 12:38:22;;;;;;;23.80;11.47;;;4.10;99.90;;;;;;5015669;28;20175;-92
2022/01/08 12:40:49;;;;;;;25.37;11.87;;;4.00;99.90;;;;;;5007971;28;20231;-91
2022/01/08 12:43:24;;;;;;;22.00;10.80;;;4.00;99.90;;;;;;5004569;28;20175;-91
2022/01/08 12:45:51;;;;;;;22.30;10.93;;;3.90;99.90;;;;;;5007223;28;20178;-92
2022/01/08 12:48:21;;;;;;;21.07;9.30;;;3.90;99.90;;;;;;5014235;28;20174;-91
2022/01/08 12:50:48;;;;;;;23.87;10.70;;;3.90;99.90;;;;;;5010633;28;20195;-91
2022/01/08 12:53:22;;;;;;;21.67;10.43;;;3.80;99.90;;;;;;5003926;28;20554;-91
2022/01/08 12:55:53;;;;;;;17.90;9.50;;;3.80;99.90;;;;;;5021371;28;20211;-90
2022/01/08 12:58:33;;;;;;;24.87;11.77;;;3.70;99.90;;;;;;5007902;28;20200;-90
2022/01/08 13:01:02;;;;;;;22.53;10.63;;;3.70;99.90;;;;;;5010853;28;20686;-90
2022/01/08 13:03:37;;;;;;;20.00;10.33;;;3.70;99.90;;;;;;5013663;28;20278;-91
2022/01/08 13:06:12;;;;;;;19.17;10.20;;;3.70;99.90;;;;;;5006227;28;20563;-91
2022/01/08 13:08:40;;;;;;;18.03;9.63;;;3.70;99.90;;;;;;4994477;28;20194;-90
2022/01/08 13:11:08;;;;;;;16.87;8.83;;;3.70;99.90;;;;;;5011120;28;20183;-90
2022/01/08 13:13:42;;;;;;;23.77;9.60;;;3.70;99.90;;;;;;5026225;28;20194;-90
2022/01/08 13:16:19;;;;;;;22.73;9.07;;;3.70;99.90;;;;;;5014048;28;20233;-90